Time;durP1;ratioP1;P1;durP2;ratioP2;P2;SDS_P1;SDS_P2;PMS_P1;PMS_P2;Temp;Humidity;BMP_temperature;BMP_pressure;BME280_temperature;BME280_humidity;BME280_pressure;Samples;Min_cycle;Max_cycle;Signal;HPM_P1;HPM_P2
2023/09/28 00:01:18;;;;;;;17.50;7.30;;;;;;;18.12;47.25;100188.02;78344;1295;3048324;-72
2023/09/28 00:03:47;;;;;;;14.50;7.80;;;;;;;18.06;47.45;100187.80;78147;1295;3053950;-75
2023/09/28 00:06:14;;;;;;;13.30;7.90;;;;;;;18.02;47.71;100182.31;79564;1297;3013263;-70
2023/09/28 00:08:40;;;;;;;16.10;7.50;;;;;;;18.01;47.67;100184.86;79690;1298;3011950;-73
2023/09/28 00:11:08;;;;;;;15.90;7.40;;;;;;;18.01;47.59;100186.45;78363;1295;3068398;-72
2023/09/28 00:13:34;;;;;;;16.30;8.40;;;;;;;17.98;47.50;100185.06;79677;1294;3011723;-69
2023/09/28 00:16:01;;;;;;;19.40;8.20;;;;;;;17.98;47.61;100178.02;79520;1295;3011706;-71
2023/09/28 00:18:29;;;;;;;11.50;6.90;;;;;;;17.99;47.52;100179.02;78319;1298;3026455;-69
2023/09/28 00:20:56;;;;;;;16.00;7.10;;;;;;;17.99;47.45;100184.67;79654;1298;3013117;-71
2023/09/28 00:23:22;;;;;;;15.50;7.80;;;;;;;17.95;47.43;100178.05;79589;1296;3011585;-69
2023/09/28 00:25:50;;;;;;;17.10;7.40;;;;;;;17.92;47.41;100177.71;78493;1295;3027449;-67
2023/09/28 00:28:17;;;;;;;20.50;8.50;;;;;;;17.92;47.07;100179.33;79707;1298;3012903;-70
2023/09/28 00:30:44;;;;;;;26.10;7.90;;;;;;;17.90;47.43;100177.75;79673;1294;3011942;-72
2023/09/28 00:33:12;;;;;;;17.30;7.90;;;;;;;17.88;47.17;100173.13;78369;1298;3052675;-71
2023/09/28 00:35:38;;;;;;;13.50;7.50;;;;;;;17.85;47.35;100178.44;79590;1298;3013283;-67
2023/09/28 00:38:06;;;;;;;18.60;7.80;;;;;;;17.85;47.15;100175.98;79725;1297;3011366;-73
2023/09/28 00:40:34;;;;;;;14.80;7.20;;;;;;;17.85;47.07;100177.55;78577;1295;3068758;-65
2023/09/28 00:43:00;;;;;;;17.00;8.30;;;;;;;17.83;47.47;100174.33;79709;1294;3012887;-70
2023/09/28 00:45:27;;;;;;;12.00;7.90;;;;;;;17.81;47.29;100177.54;79599;1295;3013966;-67
2023/09/28 00:48:02;;;;;;;21.20;7.80;;;;;;;17.79;47.77;100182.70;78391;1296;3026759;-71
2023/09/28 00:50:31;;;;;;;17.30;7.80;;;;;;;17.77;47.70;100181.39;79166;1297;3011808;-66
2023/09/28 00:52:59;;;;;;;14.80;7.80;;;;;;;17.75;47.63;100178.73;79770;1298;3018554;-67
2023/09/28 00:55:27;;;;;;;17.40;7.30;;;;;;;17.73;47.66;100181.00;79692;1298;3012961;-71
2023/09/28 00:58:09;;;;;;;15.20;7.20;;;;;;;17.69;48.10;100178.67;78419;1296;3070051;-69
2023/09/28 01:00:40;;;;;;;16.80;7.40;;;;;;;17.67;48.10;100182.77;78479;1295;3051433;-71
2023/09/28 01:03:07;;;;;;;14.30;7.00;;;;;;;17.63;48.23;100183.55;79595;1295;3013630;-69
2023/09/28 01:05:40;;;;;;;21.60;7.90;;;;;;;17.60;48.38;100189.83;79289;1295;3013176;-68
2023/09/28 01:08:12;;;;;;;19.50;7.90;;;;;;;17.56;48.28;100191.55;79573;1300;3011631;-68
2023/09/28 01:10:41;;;;;;;11.90;7.70;;;;;;;17.50;48.78;100193.45;78475;1300;3050618;-70
2023/09/28 01:13:11;;;;;;;17.10;7.60;;;;;;;17.47;48.66;100193.67;79668;1295;3013207;-67
2023/09/28 01:15:40;;;;;;;20.90;7.20;;;;;;;17.40;49.04;100193.30;78409;1296;3068633;-69
2023/09/28 01:18:10;;;;;;;11.00;6.70;;;;;;;17.40;48.87;100194.20;79670;1297;3012938;-68
2023/09/28 01:20:39;;;;;;;18.00;7.90;;;;;;;17.37;49.29;100193.89;78400;1295;3047526;-68
2023/09/28 01:23:05;;;;;;;17.90;7.50;;;;;;;17.35;48.98;100195.08;79758;1295;3013543;-66
2023/09/28 01:25:32;;;;;;;12.30;7.40;;;;;;;17.32;49.07;100198.90;79544;1294;3012879;-65
2023/09/28 01:28:00;;;;;;;12.80;7.20;;;;;;;17.32;49.08;100197.30;78646;1298;3052799;-66
2023/09/28 01:30:27;;;;;;;17.80;8.10;;;;;;;17.29;49.48;100197.20;79434;1301;3013535;-70
2023/09/28 01:32:53;;;;;;;13.40;7.00;;;;;;;17.21;49.59;100200.60;79581;1294;3011863;-71
2023/09/28 01:35:21;;;;;;;17.10;7.80;;;;;;;17.18;49.68;100201.89;78224;1295;3026815;-66
2023/09/28 01:38:02;;;;;;;21.60;7.70;;;;;;;17.16;50.02;100204.36;79653;1296;3013321;-72
2023/09/28 01:40:30;;;;;;;13.40;6.80;;;;;;;17.11;50.05;100207.60;78447;1298;3053361;-74
2023/09/28 01:42:56;;;;;;;21.30;7.20;;;;;;;17.12;49.59;100200.39;79749;1295;3013427;-70
2023/09/28 01:45:23;;;;;;;12.50;7.50;;;;;;;17.13;49.60;100206.39;79629;1294;3011960;-66
2023/09/28 01:47:51;;;;;;;18.70;6.90;;;;;;;17.11;50.00;100210.05;78351;1295;3027750;-71
2023/09/28 01:50:18;;;;;;;18.00;7.60;;;;;;;17.04;50.22;100210.73;79614;1298;3013067;-69
2023/09/28 01:52:45;;;;;;;19.50;7.70;;;;;;;17.01;49.92;100210.11;79639;1293;3013569;-72
2023/09/28 01:55:13;;;;;;;17.50;7.40;;;;;;;17.02;49.93;100208.62;78504;1293;3053091;-71
2023/09/28 01:57:42;;;;;;;19.30;7.80;;;;;;;16.97;50.23;100216.45;79696;1295;3014897;-68
2023/09/28 02:00:15;;;;;;;13.10;7.70;;;;;;;16.97;50.01;100215.52;78945;1294;3011827;-70
2023/09/28 02:02:42;;;;;;;22.50;7.60;;;;;;;16.97;49.92;100215.55;79654;1295;3012842;-71
2023/09/28 02:05:11;;;;;;;23.20;7.60;;;;;;;16.92;50.34;100213.27;78364;1296;3024852;-70
2023/09/28 02:07:38;;;;;;;19.80;8.00;;;;;;;16.87;50.69;100214.98;79662;1294;3013544;-67
2023/09/28 02:10:06;;;;;;;13.00;7.50;;;;;;;16.87;50.51;100216.45;79547;1294;3011938;-67
2023/09/28 02:12:34;;;;;;;13.10;7.10;;;;;;;16.87;50.44;100216.64;78551;1298;3053588;-71
2023/09/28 02:15:07;;;;;;;14.60;7.40;;;;;;;16.86;50.08;100214.02;79715;1295;3012140;-71
2023/09/28 02:17:36;;;;;;;14.40;7.30;;;;;;;16.85;50.23;100217.09;78435;1295;3068500;-69
2023/09/28 02:20:09;;;;;;;15.10;7.10;;;;;;;16.81;50.51;100217.58;79776;1294;3012732;-68
2023/09/28 02:22:43;;;;;;;14.50;7.30;;;;;;;16.80;50.61;100220.70;78244;1295;3049284;-72
2023/09/28 02:25:15;;;;;;;16.70;7.60;;;;;;;16.77;50.41;100222.69;79081;1294;3011979;-69
2023/09/28 02:27:42;;;;;;;22.00;7.80;;;;;;;16.74;50.45;100222.13;79734;1295;3011781;-70
2023/09/28 02:30:12;;;;;;;15.40;6.90;;;;;;;16.73;50.39;100217.27;78430;1297;3025152;-67
2023/09/28 02:32:39;;;;;;;11.90;7.30;;;;;;;16.68;50.42;100216.77;79670;1295;3013452;-68
2023/09/28 02:35:09;;;;;;;17.00;7.50;;;;;;;16.67;50.63;100217.38;79228;1295;3013092;-66
2023/09/28 02:37:36;;;;;;;13.80;7.60;;;;;;;16.67;50.63;100215.25;79696;1294;3013250;-72
2023/09/28 02:40:05;;;;;;;20.30;7.50;;;;;;;16.63;50.77;100219.45;80101;1295;3011809;-63
2023/09/28 02:42:34;;;;;;;14.90;7.60;;;;;;;16.65;50.45;100219.48;79435;1300;3050796;-63
2023/09/28 02:45:00;;;;;;;21.40;7.20;;;;;;;16.66;50.53;100224.02;80672;1295;3012919;-65
2023/09/28 02:47:27;;;;;;;14.80;6.90;;;;;;;16.65;50.44;100223.92;79963;1301;3011547;-67
2023/09/28 02:49:55;;;;;;;20.00;7.50;;;;;;;16.66;50.35;100228.78;78726;1297;3027431;-66
2023/09/28 02:52:21;;;;;;;20.60;8.10;;;;;;;16.65;50.59;100228.30;79781;1295;3018418;-69
2023/09/28 02:54:48;;;;;;;17.30;7.30;;;;;;;16.61;50.50;100228.10;79457;1294;3012819;-68
2023/09/28 02:57:17;;;;;;;12.20;7.30;;;;;;;16.57;50.58;100228.92;78289;1295;3026691;-69
2023/09/28 02:59:44;;;;;;;13.00;7.20;;;;;;;16.56;50.45;100231.42;79611;1295;3016071;-69
2023/09/28 03:02:13;;;;;;;18.80;7.20;;;;;;;16.57;50.51;100229.61;79759;1297;3011695;-65
2023/09/28 03:04:41;;;;;;;12.40;7.00;;;;;;;16.53;50.57;100228.98;78485;1295;3052803;-64
2023/09/28 03:07:08;;;;;;;12.50;7.40;;;;;;;16.50;50.66;100227.52;79576;1295;3019187;-68
2023/09/28 03:09:35;;;;;;;14.10;7.10;;;;;;;16.49;50.55;100231.80;79481;1298;3011864;-70
2023/09/28 03:12:03;;;;;;;13.10;7.40;;;;;;;16.48;50.64;100231.00;78440;1295;3027290;-68
2023/09/28 03:14:30;;;;;;;18.30;7.60;;;;;;;16.47;50.68;100233.02;80037;1295;3013093;-70
2023/09/28 03:16:56;;;;;;;16.80;8.00;;;;;;;16.47;50.89;100230.36;79545;1300;3011311;-67
2023/09/28 03:19:24;;;;;;;15.30;8.10;;;;;;;16.47;50.62;100228.77;78487;1298;3027304;-69
2023/09/28 03:21:53;;;;;;;18.90;8.10;;;;;;;16.48;50.56;100228.52;79628;1294;3012986;-69
2023/09/28 03:24:22;;;;;;;19.20;8.20;;;;;;;16.47;51.04;100225.23;78571;1295;3057899;-67
2023/09/28 03:26:50;;;;;;;15.00;7.10;;;;;;;16.45;50.85;100229.23;79725;1294;3019641;-67
2023/09/28 03:29:17;;;;;;;18.80;8.40;;;;;;;16.43;50.66;100226.90;79573;1296;3011656;-66
2023/09/28 03:31:44;;;;;;;16.80;8.10;;;;;;;16.41;50.92;100230.81;78352;1297;3053614;-69
2023/09/28 03:34:11;;;;;;;18.10;8.30;;;;;;;16.38;51.08;100226.97;79773;1295;3012899;-68
2023/09/28 03:36:37;;;;;;;21.80;8.30;;;;;;;16.35;51.00;100230.86;79762;1296;3011525;-71
2023/09/28 03:39:05;;;;;;;24.00;9.00;;;;;;;16.33;51.08;100231.40;78445;1295;3029231;-68
2023/09/28 03:41:32;;;;;;;20.00;8.00;;;;;;;16.34;51.02;100229.30;79634;1295;3013271;-70
2023/09/28 03:43:58;;;;;;;23.30;8.20;;;;;;;16.36;50.85;100230.80;79641;1295;3011552;-70
2023/09/28 03:46:27;;;;;;;16.30;8.50;;;;;;;16.33;51.27;100231.69;78417;1295;3025960;-71
2023/09/28 03:48:53;;;;;;;22.80;8.30;;;;;;;16.28;51.46;100233.30;79833;1295;3013044;-70
2023/09/28 03:51:20;;;;;;;19.70;8.70;;;;;;;16.25;51.79;100233.89;79724;1294;3011923;-66
2023/09/28 03:53:47;;;;;;;20.80;8.70;;;;;;;16.22;51.67;100228.09;78548;1295;3055802;-65
2023/09/28 03:56:14;;;;;;;16.50;8.50;;;;;;;16.23;51.67;100230.45;79684;1294;3013744;-67
2023/09/28 03:58:40;;;;;;;25.00;9.10;;;;;;;16.22;51.87;100231.12;79772;1296;3011754;-72
2023/09/28 04:01:08;;;;;;;21.60;9.50;;;;;;;16.22;51.57;100231.93;78390;1298;3028052;-72
2023/09/28 04:03:36;;;;;;;23.90;9.00;;;;;;;16.24;51.53;100233.20;79811;1298;3012816;-72
2023/09/28 04:06:03;;;;;;;20.60;9.80;;;;;;;16.23;52.08;100231.52;79787;1295;3011626;-67
2023/09/28 04:08:32;;;;;;;19.80;9.50;;;;;;;16.24;51.87;100232.01;76272;1296;5960238;-69
2023/09/28 04:10:58;;;;;;;15.80;8.50;;;;;;;16.25;51.97;100231.79;79563;1295;3013293;-71
2023/09/28 04:13:25;;;;;;;25.50;8.50;;;;;;;16.24;51.95;100230.23;79551;1294;3013208;-71
2023/09/28 04:15:53;;;;;;;22.30;9.00;;;;;;;16.25;51.78;100230.33;78369;1298;3025756;-74
2023/09/28 04:18:20;;;;;;;23.70;9.10;;;;;;;16.28;52.00;100232.23;79594;1296;3013283;-69
2023/09/28 04:20:46;;;;;;;17.80;9.20;;;;;;;16.32;51.81;100232.86;79480;1294;3011797;-69
2023/09/28 04:23:14;;;;;;;15.00;8.40;;;;;;;16.33;51.75;100235.23;78351;1298;3027542;-67
2023/09/28 04:25:40;;;;;;;19.00;8.80;;;;;;;16.33;51.80;100235.79;79775;1298;3018290;-71
2023/09/28 04:28:07;;;;;;;15.30;8.70;;;;;;;16.33;51.87;100236.63;79638;1294;3013057;-72
2023/09/28 04:30:36;;;;;;;16.40;8.70;;;;;;;16.38;51.49;100232.61;78596;1295;3028258;-64
2023/09/28 04:33:03;;;;;;;14.50;8.00;;;;;;;16.42;51.31;100234.56;79670;1298;3013682;-69
2023/09/28 04:35:34;;;;;;;20.60;8.60;;;;;;;16.42;51.45;100234.03;79174;1294;3011953;-69
2023/09/28 04:38:01;;;;;;;18.10;9.50;;;;;;;16.47;51.41;100239.54;79515;1296;3013138;-70
2023/09/28 04:40:28;;;;;;;21.10;8.90;;;;;;;16.46;51.49;100246.00;79608;1295;3012059;-70
2023/09/28 04:42:56;;;;;;;16.70;9.00;;;;;;;16.52;51.26;100245.23;78481;1294;3052988;-69
2023/09/28 04:45:22;;;;;;;20.10;8.90;;;;;;;16.56;51.22;100250.52;79792;1298;3014205;-73
2023/09/28 04:47:48;;;;;;;19.10;9.10;;;;;;;16.57;51.25;100249.23;79615;1294;3011570;-69
2023/09/28 04:50:16;;;;;;;21.70;8.20;;;;;;;16.61;51.22;100247.85;78441;1296;3028832;-70
2023/09/28 04:52:43;;;;;;;25.10;8.90;;;;;;;16.67;51.11;100251.02;79637;1294;3013147;-71
2023/09/28 04:55:10;;;;;;;17.50;8.90;;;;;;;16.69;51.07;100253.30;79610;1296;3011739;-67
2023/09/28 04:57:38;;;;;;;21.80;8.40;;;;;;;16.63;51.27;100253.73;78420;1298;3026062;-70
2023/09/28 05:00:08;;;;;;;25.50;9.30;;;;;;;16.68;51.23;100258.76;79750;1295;3012973;-70
2023/09/28 05:02:37;;;;;;;18.10;8.90;;;;;;;16.67;51.16;100257.03;78696;1295;3053773;-68
2023/09/28 05:05:05;;;;;;;27.50;9.30;;;;;;;16.73;51.09;100256.22;79785;1292;3012868;-68
2023/09/28 05:07:32;;;;;;;16.30;8.50;;;;;;;16.75;51.30;100255.52;79801;1292;3011481;-68
2023/09/28 05:10:00;;;;;;;13.10;8.30;;;;;;;16.80;51.07;100258.89;78469;1292;3049502;-70
2023/09/28 05:12:26;;;;;;;26.90;9.90;;;;;;;16.85;50.98;100258.88;79786;1295;3012867;-72
2023/09/28 05:14:53;;;;;;;20.40;9.00;;;;;;;16.90;50.79;100262.05;79839;1295;3013162;-70
2023/09/28 05:17:21;;;;;;;16.40;8.60;;;;;;;16.96;50.71;100259.00;78505;1293;3026217;-70
2023/09/28 05:19:48;;;;;;;18.60;8.70;;;;;;;17.03;50.40;100257.00;79658;1292;3013432;-69
2023/09/28 05:22:15;;;;;;;23.40;7.90;;;;;;;17.06;49.97;100262.64;79692;1293;3011891;-69
2023/09/28 05:24:45;;;;;;;13.00;7.90;;;;;;;17.10;49.90;100262.88;78570;1297;3048969;-68
2023/09/28 05:27:12;;;;;;;17.80;8.70;;;;;;;17.12;49.89;100270.70;79872;1295;3013694;-68
2023/09/28 05:29:39;;;;;;;23.10;8.20;;;;;;;17.20;49.84;100270.65;79835;1295;3013961;-69
2023/09/28 05:32:08;;;;;;;16.70;8.30;;;;;;;17.21;49.70;100273.52;78704;1292;3052319;-67
2023/09/28 05:34:35;;;;;;;23.70;8.20;;;;;;;17.26;49.61;100277.09;79926;1292;3012961;-70
2023/09/28 05:37:01;;;;;;;16.30;8.80;;;;;;;17.31;49.70;100273.30;79809;1292;3011733;-69
2023/09/28 05:39:29;;;;;;;17.10;7.50;;;;;;;17.37;49.38;100275.35;78610;1295;3049411;-71
2023/09/28 05:41:56;;;;;;;14.30;8.00;;;;;;;17.46;48.94;100273.63;79915;1295;3013734;-70
2023/09/28 05:44:23;;;;;;;19.90;8.50;;;;;;;17.50;49.07;100276.52;79764;1296;3011901;-72
2023/09/28 05:46:50;;;;;;;20.10;8.80;;;;;;;17.54;48.81;100280.98;78629;1293;3028967;-71
2023/09/28 05:49:17;;;;;;;21.20;9.10;;;;;;;17.58;48.82;100278.03;79858;1295;3012798;-71
2023/09/28 05:51:44;;;;;;;19.40;9.00;;;;;;;17.65;49.04;100280.33;79847;1296;3012961;-72
2023/09/28 05:54:12;;;;;;;13.80;8.40;;;;;;;17.73;49.12;100278.62;78735;1295;3026453;-68
2023/09/28 05:56:39;;;;;;;20.40;8.70;;;;;;;17.81;48.71;100280.00;80067;1296;3018875;-69
2023/09/28 05:59:05;;;;;;;15.90;8.70;;;;;;;17.87;48.62;100285.04;79908;1296;3011847;-68
2023/09/28 06:01:33;;;;;;;28.50;9.00;;;;;;;17.90;48.73;100286.91;78659;1297;3026154;-71
2023/09/28 06:04:00;;;;;;;22.80;9.00;;;;;;;17.94;48.64;100286.58;79741;1294;3019079;-69
2023/09/28 06:06:27;;;;;;;15.50;8.30;;;;;;;18.03;48.70;100287.20;79798;1298;3011628;-69
2023/09/28 06:08:55;;;;;;;18.50;8.50;;;;;;;18.10;48.06;100287.61;78527;1298;3048244;-68
2023/09/28 06:11:21;;;;;;;17.70;8.40;;;;;;;18.18;47.78;100281.19;79615;1297;3018945;-69
2023/09/28 06:13:48;;;;;;;22.00;8.90;;;;;;;18.26;47.54;100278.17;79588;1295;3011531;-70
2023/09/28 06:16:16;;;;;;;21.90;8.00;;;;;;;18.35;47.68;100278.04;78532;1298;3026590;-69
2023/09/28 06:18:42;;;;;;;14.90;9.00;;;;;;;18.41;47.52;100277.00;79659;1297;3018463;-69
2023/09/28 06:21:09;;;;;;;17.80;8.30;;;;;;;18.50;47.42;100281.95;79613;1295;3013611;-71
2023/09/28 06:23:37;;;;;;;18.50;8.20;;;;;;;18.59;47.28;100280.22;78455;1295;3026182;-74
2023/09/28 06:26:03;;;;;;;23.00;8.20;;;;;;;18.66;47.31;100275.21;79644;1295;3013152;-74
2023/09/28 06:28:30;;;;;;;18.40;8.20;;;;;;;18.72;47.22;100277.35;79999;1298;3011647;-75
2023/09/28 06:30:59;;;;;;;17.70;8.30;;;;;;;18.81;46.64;100280.52;78579;1295;3026631;-71
2023/09/28 06:33:25;;;;;;;18.30;8.10;;;;;;;18.88;46.39;100281.00;79603;1295;3014430;-75
2023/09/28 06:35:54;;;;;;;22.30;7.80;;;;;;;18.96;46.45;100280.73;79445;1295;3011607;-72
2023/09/28 06:38:22;;;;;;;17.70;8.20;;;;;;;19.07;46.25;100276.61;78932;1295;3048783;-68
2023/09/28 06:40:48;;;;;;;15.80;8.20;;;;;;;19.17;46.28;100277.44;81280;1293;3011638;-70
2023/09/28 06:43:15;;;;;;;21.70;8.10;;;;;;;19.20;46.42;100282.70;80957;1297;3011536;-71
2023/09/28 06:45:43;;;;;;;21.90;8.80;;;;;;;19.27;46.48;100280.84;78218;1301;3052841;-70
2023/09/28 06:48:09;;;;;;;21.40;7.40;;;;;;;19.37;46.25;100279.29;79225;1298;3019115;-67
2023/09/28 06:50:38;;;;;;;19.50;8.30;;;;;;;19.49;45.73;100281.15;79539;1299;3012847;-72
2023/09/28 06:53:06;;;;;;;23.50;8.00;;;;;;;19.60;45.54;100277.16;78251;1301;3049202;-71
2023/09/28 06:55:35;;;;;;;21.30;7.50;;;;;;;19.72;45.15;100277.92;79450;1296;3016109;-72
2023/09/28 06:58:06;;;;;;;17.70;8.70;;;;;;;19.80;45.37;100283.09;79602;1298;3011625;-72
2023/09/28 07:00:34;;;;;;;25.90;8.30;;;;;;;19.92;45.25;100283.83;78297;1301;3052795;-71
2023/09/28 07:03:00;;;;;;;17.70;8.30;;;;;;;20.05;44.84;100286.60;79369;1298;3018671;-69
2023/09/28 07:05:27;;;;;;;22.20;8.30;;;;;;;20.11;44.43;100290.94;79575;1300;3011833;-71
2023/09/28 07:07:55;;;;;;;16.70;8.10;;;;;;;20.19;44.72;100288.84;78372;1298;3027235;-70
2023/09/28 07:10:21;;;;;;;16.00;7.90;;;;;;;20.27;44.72;100292.85;79520;1301;3012651;-69
2023/09/28 07:12:48;;;;;;;25.70;8.40;;;;;;;20.35;44.77;100291.36;79649;1301;3013287;-74
2023/09/28 07:15:16;;;;;;;17.90;7.80;;;;;;;20.38;44.87;100293.88;78313;1300;3027747;-70
2023/09/28 07:17:43;;;;;;;14.60;7.80;;;;;;;20.48;44.59;100297.46;79807;1297;3011614;-74
2023/09/28 07:20:11;;;;;;;20.40;8.90;;;;;;;20.60;44.20;100295.89;79508;1298;3013300;-73
2023/09/28 07:22:39;;;;;;;16.70;7.30;;;;;;;20.73;43.90;100294.55;78216;1298;3048169;-73
2023/09/28 07:25:06;;;;;;;14.20;6.90;;;;;;;20.79;42.95;100294.86;79219;1303;3012934;-73
2023/09/28 07:27:33;;;;;;;23.20;7.50;;;;;;;20.86;43.33;100294.65;79660;1298;3011837;-72
2023/09/28 07:30:05;;;;;;;21.70;8.00;;;;;;;20.91;43.28;100291.64;78353;1301;3053570;-72
2023/09/28 07:32:34;;;;;;;28.90;8.30;;;;;;;21.00;43.55;100287.31;79774;1301;3011646;-73
2023/09/28 07:35:05;;;;;;;17.60;7.50;;;;;;;21.08;43.42;100283.57;78367;1301;3051585;-70
2023/09/28 07:37:32;;;;;;;21.00;7.80;;;;;;;21.14;43.40;100283.54;79444;1298;3011616;-72
2023/09/28 07:40:01;;;;;;;18.90;6.30;;;;;;;21.17;43.50;100279.82;78268;1299;3025425;-72
2023/09/28 07:42:28;;;;;;;15.50;7.70;;;;;;;21.23;43.06;100276.04;79590;1297;3013558;-72
2023/09/28 07:44:55;;;;;;;15.90;7.70;;;;;;;21.33;42.93;100275.52;79431;1301;3011548;-72
2023/09/28 07:47:23;;;;;;;21.10;7.50;;;;;;;21.44;42.73;100275.80;78124;1300;3052838;-67
2023/09/28 07:49:52;;;;;;;25.60;7.60;;;;;;;21.49;42.80;100275.28;79561;1301;3014885;-69
2023/09/28 07:52:21;;;;;;;17.30;7.80;;;;;;;21.56;42.53;100279.45;78949;1298;3011441;-72
2023/09/28 07:54:48;;;;;;;14.70;7.70;;;;;;;21.63;42.06;100276.67;79366;1298;3011404;-73
2023/09/28 07:57:15;;;;;;;16.80;7.70;;;;;;;21.68;41.88;100268.20;79548;1297;3013340;-72
2023/09/28 07:59:43;;;;;;;19.50;7.40;;;;;;;21.72;41.66;100268.52;78237;1301;3028476;-69
2023/09/28 08:02:09;;;;;;;24.40;7.20;;;;;;;21.85;41.62;100269.52;79610;1301;3013765;-73
2023/09/28 08:04:36;;;;;;;18.20;7.10;;;;;;;21.93;41.22;100266.35;79557;1301;3011676;-72
2023/09/28 08:07:04;;;;;;;13.10;6.70;;;;;;;22.00;40.79;100263.92;78156;1301;3026322;-70
2023/09/28 08:09:32;;;;;;;17.60;6.90;;;;;;;22.14;40.86;100262.89;79477;1301;3011469;-70
2023/09/28 08:11:59;;;;;;;27.30;9.60;;;;;;;22.27;40.58;100265.08;79631;1298;3011458;-67
2023/09/28 08:14:27;;;;;;;19.80;7.40;;;;;;;22.34;40.31;100260.66;78240;1301;3049762;-70
2023/09/28 08:16:54;;;;;;;25.90;7.20;;;;;;;22.48;40.52;100265.98;79314;1298;3014070;-71
2023/09/28 08:19:20;;;;;;;36.30;9.20;;;;;;;22.52;40.18;100263.98;79188;1301;3011875;-71
2023/09/28 08:21:49;;;;;;;38.70;9.50;;;;;;;22.55;40.25;100256.45;78290;1298;3051022;-71
2023/09/28 08:24:17;;;;;;;27.70;8.20;;;;;;;22.64;40.04;100256.28;79500;1301;3013396;-69
2023/09/28 08:26:47;;;;;;;24.50;7.00;;;;;;;22.78;39.83;100253.12;78963;1298;3011632;-74
2023/09/28 08:29:15;;;;;;;22.50;6.70;;;;;;;22.90;39.46;100253.53;79522;1299;3013793;-72
2023/09/28 08:31:42;;;;;;;17.70;6.20;;;;;;;23.06;39.29;100248.59;79346;1298;3012945;-70
2023/09/28 08:34:10;;;;;;;19.40;5.70;;;;;;;23.24;38.90;100243.95;78135;1298;3053604;-68
2023/09/28 08:36:36;;;;;;;15.50;5.50;;;;;;;23.40;38.81;100245.14;79534;1298;3013598;-71
2023/09/28 08:39:04;;;;;;;12.40;5.30;;;;;;;23.57;38.38;100242.52;79480;1298;3012828;-70
2023/09/28 08:41:45;;;;;;;12.80;4.80;;;;;;;23.75;37.64;100240.46;78214;1298;3049022;-74
2023/09/28 08:44:14;;;;;;;13.30;4.80;;;;;;;23.92;37.40;100241.59;78358;1303;3052610;-66
2023/09/28 08:46:40;;;;;;;10.30;4.60;;;;;;;24.06;36.43;100237.87;79535;1298;3013615;-75
2023/09/28 08:49:09;;;;;;;11.10;4.50;;;;;;;24.18;36.08;100237.13;79687;1301;3011781;-70
2023/09/28 08:51:38;;;;;;;15.80;5.00;;;;;;;24.33;36.23;100235.33;78460;1298;3067433;-74
2023/09/28 08:54:05;;;;;;;11.20;5.10;;;;;;;24.47;36.03;100237.79;79539;1298;3013104;-73
2023/09/28 08:56:38;;;;;;;10.30;4.00;;;;;;;24.59;35.81;100235.94;79024;1301;3011815;-72
2023/09/28 08:59:05;;;;;;;12.00;4.20;;;;;;;24.73;35.79;100231.78;79477;1301;3012060;-74
2023/09/28 09:01:34;;;;;;;11.90;3.90;;;;;;;24.87;35.36;100227.92;78928;1304;3011474;-73
2023/09/28 09:04:00;;;;;;;13.40;4.30;;;;;;;24.92;35.17;100229.59;79209;1304;3013664;-71
2023/09/28 09:06:28;;;;;;;12.00;3.90;;;;;;;25.05;35.22;100219.67;79420;1301;3011822;-74
2023/09/28 09:09:00;;;;;;;10.50;3.70;;;;;;;25.20;35.13;100220.93;78231;1301;3068917;-73
2023/09/28 09:11:33;;;;;;;11.30;4.10;;;;;;;25.28;34.91;100219.83;79597;1298;3013334;-72
2023/09/28 09:14:01;;;;;;;11.20;4.30;;;;;;;25.40;35.08;100214.45;78611;1300;3056314;-74
2023/09/28 09:16:28;;;;;;;11.30;3.20;;;;;;;25.48;34.97;100212.72;79878;1298;3013138;-74
2023/09/28 09:18:55;;;;;;;17.50;3.50;;;;;;;25.50;34.33;100206.96;79400;1301;3011564;-72
2023/09/28 09:21:23;;;;;;;12.20;3.20;;;;;;;25.58;34.04;100204.95;78275;1301;3026621;-74
2023/09/28 09:24:02;;;;;;;9.20;3.20;;;;;;;25.67;33.70;100206.20;79598;1299;3013045;-73
2023/09/28 09:26:41;;;;;;;7.50;3.00;;;;;;;25.80;33.43;100198.70;78241;1300;3051302;-70
2023/09/28 09:29:09;;;;;;;6.50;3.40;;;;;;;25.87;33.04;100200.98;78583;1301;3057181;-71
2023/09/28 09:31:38;;;;;;;9.90;3.20;;;;;;;25.96;33.08;100199.55;79606;1299;3012648;-74
2023/09/28 09:34:11;;;;;;;9.10;2.90;;;;;;;26.07;32.88;100196.41;79225;1301;3011679;-69
2023/09/28 09:36:38;;;;;;;;;;;;;;;26.14;32.19;100195.23;79692;1296;3011517;-73
2023/09/28 09:39:08;;;;;;;9.80;3.20;;;;;;;26.17;32.57;100190.78;78598;1301;3025706;-73
2023/09/28 09:41:44;;;;;;;5.60;2.80;;;;;;;26.23;32.10;100191.42;79556;1301;3011647;-71
2023/09/28 09:44:17;;;;;;;4.20;2.70;;;;;;;26.31;31.31;100184.96;78249;1301;3069290;-73
2023/09/28 09:46:46;;;;;;;5.20;2.90;;;;;;;26.38;31.22;100183.61;79404;1300;3012118;-69
2023/09/28 09:49:16;;;;;;;14.10;2.80;;;;;;;26.46;31.12;100185.23;78504;1298;3055930;-69
2023/09/28 09:51:46;;;;;;;8.70;3.10;;;;;;;26.46;31.06;100183.45;79613;1301;3013530;-68
2023/09/28 09:54:14;;;;;;;11.10;3.20;;;;;;;26.44;31.27;100177.54;78418;1298;3050542;-71
2023/09/28 09:56:43;;;;;;;9.40;3.20;;;;;;;26.42;31.44;100173.48;79540;1300;3013298;-74
2023/09/28 09:59:18;;;;;;;17.80;2.90;;;;;;;26.56;31.44;100176.47;78119;1298;3068094;-71
2023/09/28 10:01:48;;;;;;;9.80;2.90;;;;;;;26.70;30.86;100173.81;79036;1301;3013257;-71
2023/09/28 10:04:16;;;;;;;8.00;2.80;;;;;;;26.84;30.39;100168.66;79451;1297;3013060;-72
2023/09/28 10:06:47;;;;;;;4.40;2.60;;;;;;;27.00;30.38;100171.70;79341;1297;3011654;-74
2023/09/28 10:09:20;;;;;;;13.40;2.90;;;;;;;27.03;30.26;100167.44;79637;1299;3013438;-72
2023/09/28 10:11:49;;;;;;;14.60;3.00;;;;;;;27.04;30.35;100168.77;78421;1301;3053435;-69
2023/09/28 10:14:19;;;;;;;9.70;2.80;;;;;;;27.15;30.38;100161.43;79505;1298;3012911;-74
2023/09/28 10:16:53;;;;;;;15.00;2.90;;;;;;;27.25;30.08;100165.02;78420;1301;3026458;-72
2023/09/28 10:19:24;;;;;;;8.10;2.90;;;;;;;27.24;29.87;100162.46;79118;1301;3011649;-70
2023/09/28 10:21:55;;;;;;;6.90;2.90;;;;;;;27.36;29.47;100158.30;79715;1298;3011433;-72
2023/09/28 10:24:31;;;;;;;10.90;2.80;;;;;;;27.41;29.16;100157.55;78341;1297;3069918;-67
2023/09/28 10:27:09;;;;;;;8.60;2.70;;;;;;;27.43;29.35;100164.27;78224;1304;3050158;-70
2023/09/28 10:29:39;;;;;;;8.30;2.60;;;;;;;27.54;28.92;100162.30;78170;1300;3057000;-68
2023/09/28 10:32:34;;;;;;;5.40;2.40;;;;;;;27.54;28.42;100156.82;79650;1298;3014051;-69
2023/09/28 10:35:19;;;;;;;7.10;2.80;;;;;;;27.64;28.11;100158.15;78157;1298;3055148;-70
2023/09/28 10:38:15;;;;;;;11.00;2.90;;;;;;;27.76;28.33;100158.87;78231;1300;3050065;-73
2023/09/28 10:40:44;;;;;;;12.70;3.70;;;;;;;27.84;28.23;100155.11;78318;1301;3052572;-74
2023/09/28 10:43:11;;;;;;;10.50;2.50;;;;;;;27.88;28.07;100158.60;79399;1304;3013225;-70
2023/09/28 10:45:38;;;;;;;6.40;2.70;;;;;;;27.95;27.91;100155.78;79576;1298;3011544;-70
2023/09/28 10:48:06;;;;;;;7.40;3.00;;;;;;;27.91;27.84;100155.16;78244;1304;3058480;-69
2023/09/28 10:50:40;;;;;;;7.20;3.00;;;;;;;27.98;28.23;100153.83;79480;1298;3012980;-69
2023/09/28 10:53:08;;;;;;;10.50;2.80;;;;;;;28.02;28.55;100150.65;78327;1299;3050474;-70
2023/09/28 10:55:35;;;;;;;8.30;3.20;;;;;;;27.99;28.30;100143.23;79407;1303;3013781;-74
2023/09/28 10:58:04;;;;;;;7.10;3.40;;;;;;;28.07;28.20;100143.06;79319;1298;3011651;-73
2023/09/28 11:00:32;;;;;;;8.00;3.20;;;;;;;28.08;28.21;100137.80;78392;1301;3051511;-72
2023/09/28 11:02:59;;;;;;;13.70;3.30;;;;;;;28.03;27.93;100139.95;79527;1298;3013795;-70
2023/09/28 11:05:25;;;;;;;10.60;3.10;;;;;;;28.13;27.86;100134.90;79409;1301;3012789;-69
2023/09/28 11:07:53;;;;;;;7.10;2.40;;;;;;;28.16;27.47;100129.45;78345;1299;3026301;-71